< < Back
Terminal Aerodrome Forecast


Current Version              Previous Versions:   1  2  3  4  5  6  7  8  9  

Terminal Aerodrome Forecast

657
FTUS42 KJAX 200900 AAA
TAFJAX
TAF AMD
KJAX 200948Z 2010/2106 01006KT P6SM VCSH SCT006 OVC018
      TEMPO 2010/2013 -SHRA OVC006
     FM202100 03008KT P6SM -SHRA OVC030=

Latest METAR

701
SAUS80 KWBC 201800 RRA
MTRJAX
METAR KJAX 201756Z 02014G18KT 10SM SCT015 BKN030 BKN060 BKN150 OVC220
26/23 A2995 RMK AO2 SLP142 60002 T02560228 10256 20217 56008
$


USA.gov is the U.S. government's official web portal to all federal, state and local government web resources and services.